Huvudsida
METAR-TAF:

METAR-TAF

Flygplatser :

Kasane Airport

Kasane, Botswana

latitud: 17-49S, longitud: 025-09E, höjd: 968 m

Aktuellt väderrapport

Denna rapport gjordes för 1 timme och 5 minuter sedan, klockan 09:00 UTC
Vind 12 kt från ost
Temperatur 21°C
Fuktighet 49%
Tryck 1027 hPa
Sikt 10 km eller mer
Få moln på en höjd av 3000 ft

METAR: FBKE 250900Z 09012KT 9999 FEW030 21/10 Q1027

Tid: 12:05 (10:05 UTC)

Väderprognos

Denna rapport gjordes för 22 timmar och 5 minuter sedan, klockan 12:00 UTC
Prognos gäller från 24 kl. 15 UTC till 24 kl. 24 UTC
Vind 10 kt från ost/sydost
Sikt 10 km eller mer
Inga moln under 1 500 m eller inga cumulonimbus

TAF: FBKE 241200Z 2415/2424 11010KT CAVOK

Aktuella väderrapporter och prognoser från 4000 flygplatser (METAR- och TAF-rapporter).

De tillgängliga stationerna syns som gula och röda prickar på kartan.

För musen över prickarna för att se namnen på stationerna.

Klicka sedan för att få väderrapporter och prognoser.

För att ändra kartan: Klicka på de gröna knapparna med ett svart kors på för att zooma in; den gröna knappen med ett streck på för att zooma ut; eller på de gröna pilarna för angränsande kartor.


METAR-TAF: